KMTJ/MTJ METAR and TAF weather

Enter ICAO airport designator
Station Type Date Time Source
KMTJ METAR 2024/04/15 08:53 UTC NOAA

KMTJ 150853Z AUTO 24012KT 10SM CLR 12/M13 A2984 RMK AO2 SLP037 T01221128 56004


Station Type Date Time Source
KMTJ Decoded METAR 2024/04/15 08:53 UTC NOAA

MONTROSE REGIONAL AIRPORT, CO, United States (KMTJ) 38-30N 107-54W 1750M
Apr 15, 2024 - 04:53 AM EDT / 2024.04.15 0853 UTC
Wind: from the WSW (240 degrees) at 14 MPH (12 KT):0
Visibility: 10 mile(s):0
Sky conditions: clear
Temperature: 54.0 F (12.2 C)
Dew Point: 9.0 F (-12.8 C)
Relative Humidity: 16%
Pressure (altimeter): 29.84 in. Hg (1010 hPa)
Pressure tendency: 0.01 inches (0.4 hPa) lower than three hours ago
ob: KMTJ 150853Z AUTO 24012KT 10SM CLR 12/M13 A2984 RMK AO2 SLP037 T01221128 56004
cycle: 9

Station Type Date Time Source
KMTJ TAF 2024/04/15 06:22 UTC NOAA